sensor_id;sensor_type;location;lat;lon;timestamp;P1;durP1;ratioP1;P2;durP2;ratioP2
11344;SDS011;5727;42.600;23.028;2024-01-25T00:00:51;34.10;;;22.07;;
11344;SDS011;5727;42.600;23.028;2024-01-25T00:03:20;30.73;;;23.27;;
11344;SDS011;5727;42.600;23.028;2024-01-25T00:05:47;37.73;;;26.00;;
11344;SDS011;5727;42.600;23.028;2024-01-25T00:08:14;34.40;;;24.43;;
11344;SDS011;5727;42.600;23.028;2024-01-25T00:10:40;36.77;;;25.73;;
11344;SDS011;5727;42.600;23.028;2024-01-25T00:13:07;36.83;;;24.43;;
11344;SDS011;5727;42.600;23.028;2024-01-25T00:15:35;42.97;;;26.23;;
11344;SDS011;5727;42.600;23.028;2024-01-25T00:18:02;38.83;;;24.47;;
11344;SDS011;5727;42.600;23.028;2024-01-25T00:20:30;37.17;;;25.60;;
11344;SDS011;5727;42.600;23.028;2024-01-25T00:22:57;37.93;;;24.83;;
11344;SDS011;5727;42.600;23.028;2024-01-25T00:25:24;40.73;;;26.83;;
11344;SDS011;5727;42.600;23.028;2024-01-25T00:27:51;37.03;;;24.33;;
11344;SDS011;5727;42.600;23.028;2024-01-25T00:30:18;35.13;;;24.47;;
11344;SDS011;5727;42.600;23.028;2024-01-25T00:32:45;33.77;;;22.57;;
11344;SDS011;5727;42.600;23.028;2024-01-25T00:35:13;30.83;;;21.53;;
11344;SDS011;5727;42.600;23.028;2024-01-25T00:37:42;30.83;;;20.50;;
11344;SDS011;5727;42.600;23.028;2024-01-25T00:40:10;28.17;;;20.17;;
11344;SDS011;5727;42.600;23.028;2024-01-25T00:42:41;31.23;;;21.67;;
11344;SDS011;5727;42.600;23.028;2024-01-25T00:45:09;28.40;;;21.13;;
11344;SDS011;5727;42.600;23.028;2024-01-25T00:47:37;28.70;;;20.30;;
11344;SDS011;5727;42.600;23.028;2024-01-25T00:50:05;30.93;;;21.53;;
11344;SDS011;5727;42.600;23.028;2024-01-25T00:52:33;32.57;;;20.57;;
11344;SDS011;5727;42.600;23.028;2024-01-25T00:55:03;32.33;;;21.63;;
11344;SDS011;5727;42.600;23.028;2024-01-25T00:57:31;31.23;;;20.90;;
11344;SDS011;5727;42.600;23.028;2024-01-25T00:59:58;34.10;;;23.07;;
11344;SDS011;5727;42.600;23.028;2024-01-25T01:02:26;38.33;;;23.07;;
11344;SDS011;5727;42.600;23.028;2024-01-25T01:04:56;37.97;;;22.83;;
11344;SDS011;5727;42.600;23.028;2024-01-25T01:07:24;37.13;;;24.27;;
11344;SDS011;5727;42.600;23.028;2024-01-25T01:09:51;38.00;;;23.20;;
11344;SDS011;5727;42.600;23.028;2024-01-25T01:12:19;38.33;;;23.70;;
11344;SDS011;5727;42.600;23.028;2024-01-25T01:14:46;34.63;;;22.43;;
11344;SDS011;5727;42.600;23.028;2024-01-25T01:17:13;34.97;;;22.27;;
11344;SDS011;5727;42.600;23.028;2024-01-25T01:19:40;36.77;;;22.07;;
11344;SDS011;5727;42.600;23.028;2024-01-25T01:22:08;36.03;;;22.37;;
11344;SDS011;5727;42.600;23.028;2024-01-25T01:24:34;33.00;;;22.70;;
11344;SDS011;5727;42.600;23.028;2024-01-25T01:27:02;32.07;;;22.47;;
11344;SDS011;5727;42.600;23.028;2024-01-25T01:29:30;35.60;;;21.83;;
11344;SDS011;5727;42.600;23.028;2024-01-25T01:31:57;30.27;;;20.37;;
11344;SDS011;5727;42.600;23.028;2024-01-25T01:34:24;31.47;;;21.50;;
11344;SDS011;5727;42.600;23.028;2024-01-25T01:36:51;37.07;;;22.10;;
11344;SDS011;5727;42.600;23.028;2024-01-25T01:39:18;34.10;;;23.37;;
11344;SDS011;5727;42.600;23.028;2024-01-25T01:41:46;37.67;;;22.93;;
11344;SDS011;5727;42.600;23.028;2024-01-25T01:44:14;36.37;;;23.30;;
11344;SDS011;5727;42.600;23.028;2024-01-25T01:46:42;39.77;;;24.23;;
11344;SDS011;5727;42.600;23.028;2024-01-25T01:49:10;34.93;;;23.20;;
11344;SDS011;5727;42.600;23.028;2024-01-25T01:51:39;38.07;;;22.80;;
11344;SDS011;5727;42.600;23.028;2024-01-25T01:54:08;35.30;;;23.77;;
11344;SDS011;5727;42.600;23.028;2024-01-25T01:56:35;37.40;;;22.73;;
11344;SDS011;5727;42.600;23.028;2024-01-25T01:59:05;40.27;;;24.40;;
11344;SDS011;5727;42.600;23.028;2024-01-25T02:01:35;39.63;;;24.27;;
11344;SDS011;5727;42.600;23.028;2024-01-25T02:04:02;40.10;;;24.97;;
11344;SDS011;5727;42.600;23.028;2024-01-25T02:06:30;36.70;;;25.33;;
11344;SDS011;5727;42.600;23.028;2024-01-25T02:08:57;46.67;;;26.17;;
11344;SDS011;5727;42.600;23.028;2024-01-25T02:11:24;41.30;;;25.77;;
11344;SDS011;5727;42.600;23.028;2024-01-25T02:13:51;38.23;;;24.67;;
11344;SDS011;5727;42.600;23.028;2024-01-25T02:16:18;41.57;;;24.33;;
11344;SDS011;5727;42.600;23.028;2024-01-25T02:18:46;27.53;;;19.67;;
11344;SDS011;5727;42.600;23.028;2024-01-25T02:21:14;26.53;;;18.57;;
11344;SDS011;5727;42.600;23.028;2024-01-25T02:23:43;25.77;;;17.83;;
11344;SDS011;5727;42.600;23.028;2024-01-25T02:26:10;27.40;;;18.63;;
11344;SDS011;5727;42.600;23.028;2024-01-25T02:28:37;27.07;;;20.17;;
11344;SDS011;5727;42.600;23.028;2024-01-25T02:31:03;29.37;;;20.27;;
11344;SDS011;5727;42.600;23.028;2024-01-25T02:33:30;29.87;;;21.47;;
11344;SDS011;5727;42.600;23.028;2024-01-25T02:35:57;35.37;;;23.27;;
11344;SDS011;5727;42.600;23.028;2024-01-25T02:38:24;34.10;;;23.97;;
11344;SDS011;5727;42.600;23.028;2024-01-25T02:40:53;35.23;;;23.83;;
11344;SDS011;5727;42.600;23.028;2024-01-25T02:43:20;33.33;;;25.57;;
11344;SDS011;5727;42.600;23.028;2024-01-25T02:45:47;32.77;;;23.70;;
11344;SDS011;5727;42.600;23.028;2024-01-25T02:48:14;33.97;;;25.17;;
11344;SDS011;5727;42.600;23.028;2024-01-25T02:50:41;31.70;;;21.43;;
11344;SDS011;5727;42.600;23.028;2024-01-25T02:53:08;36.30;;;24.03;;
11344;SDS011;5727;42.600;23.028;2024-01-25T02:55:35;30.50;;;22.27;;
11344;SDS011;5727;42.600;23.028;2024-01-25T02:58:04;29.17;;;21.37;;
11344;SDS011;5727;42.600;23.028;2024-01-25T03:00:30;27.47;;;20.50;;
11344;SDS011;5727;42.600;23.028;2024-01-25T03:02:57;29.97;;;20.83;;
11344;SDS011;5727;42.600;23.028;2024-01-25T03:05:25;29.47;;;20.63;;
11344;SDS011;5727;42.600;23.028;2024-01-25T03:07:51;27.50;;;20.67;;
11344;SDS011;5727;42.600;23.028;2024-01-25T03:10:18;32.50;;;22.17;;
11344;SDS011;5727;42.600;23.028;2024-01-25T03:12:46;32.87;;;21.33;;
11344;SDS011;5727;42.600;23.028;2024-01-25T03:15:14;29.10;;;22.23;;
11344;SDS011;5727;42.600;23.028;2024-01-25T03:17:41;38.23;;;26.27;;
11344;SDS011;5727;42.600;23.028;2024-01-25T03:20:09;43.80;;;28.43;;
11344;SDS011;5727;42.600;23.028;2024-01-25T03:22:36;38.10;;;26.47;;
11344;SDS011;5727;42.600;23.028;2024-01-25T03:25:03;36.17;;;25.17;;
11344;SDS011;5727;42.600;23.028;2024-01-25T03:27:30;31.13;;;23.33;;
11344;SDS011;5727;42.600;23.028;2024-01-25T03:29:57;34.27;;;22.63;;
11344;SDS011;5727;42.600;23.028;2024-01-25T03:32:26;33.70;;;23.40;;
11344;SDS011;5727;42.600;23.028;2024-01-25T03:34:53;30.20;;;23.50;;
11344;SDS011;5727;42.600;23.028;2024-01-25T03:37:20;31.20;;;21.93;;
11344;SDS011;5727;42.600;23.028;2024-01-25T03:39:47;38.50;;;26.87;;
11344;SDS011;5727;42.600;23.028;2024-01-25T03:42:14;29.80;;;22.23;;
11344;SDS011;5727;42.600;23.028;2024-01-25T03:44:41;30.10;;;20.37;;
11344;SDS011;5727;42.600;23.028;2024-01-25T03:47:10;25.73;;;19.70;;
11344;SDS011;5727;42.600;23.028;2024-01-25T03:49:38;25.50;;;18.13;;
11344;SDS011;5727;42.600;23.028;2024-01-25T03:52:05;26.03;;;19.23;;
11344;SDS011;5727;42.600;23.028;2024-01-25T03:54:32;28.60;;;17.57;;
11344;SDS011;5727;42.600;23.028;2024-01-25T03:57:00;22.57;;;17.03;;
11344;SDS011;5727;42.600;23.028;2024-01-25T03:59:26;35.43;;;20.90;;
11344;SDS011;5727;42.600;23.028;2024-01-25T04:01:53;34.70;;;24.30;;
11344;SDS011;5727;42.600;23.028;2024-01-25T04:04:20;38.57;;;27.83;;
11344;SDS011;5727;42.600;23.028;2024-01-25T04:06:49;46.50;;;29.47;;
11344;SDS011;5727;42.600;23.028;2024-01-25T04:09:16;43.70;;;29.80;;
11344;SDS011;5727;42.600;23.028;2024-01-25T04:11:42;45.97;;;30.40;;
11344;SDS011;5727;42.600;23.028;2024-01-25T04:14:09;39.93;;;27.43;;
11344;SDS011;5727;42.600;23.028;2024-01-25T04:16:36;42.80;;;28.03;;
11344;SDS011;5727;42.600;23.028;2024-01-25T04:19:04;45.00;;;27.73;;
11344;SDS011;5727;42.600;23.028;2024-01-25T04:21:32;36.40;;;26.37;;
11344;SDS011;5727;42.600;23.028;2024-01-25T04:24:00;42.60;;;28.37;;
11344;SDS011;5727;42.600;23.028;2024-01-25T04:26:27;34.63;;;21.83;;
11344;SDS011;5727;42.600;23.028;2024-01-25T04:28:54;41.13;;;25.67;;
11344;SDS011;5727;42.600;23.028;2024-01-25T04:31:21;41.57;;;25.43;;
11344;SDS011;5727;42.600;23.028;2024-01-25T04:33:48;46.60;;;25.77;;
11344;SDS011;5727;42.600;23.028;2024-01-25T04:36:15;41.60;;;26.17;;
11344;SDS011;5727;42.600;23.028;2024-01-25T04:38:42;46.30;;;25.80;;
11344;SDS011;5727;42.600;23.028;2024-01-25T04:41:10;44.50;;;26.10;;
11344;SDS011;5727;42.600;23.028;2024-01-25T04:43:37;39.03;;;25.77;;
11344;SDS011;5727;42.600;23.028;2024-01-25T04:46:04;44.43;;;27.50;;
11344;SDS011;5727;42.600;23.028;2024-01-25T04:48:32;47.07;;;28.97;;
11344;SDS011;5727;42.600;23.028;2024-01-25T04:50:59;45.07;;;27.97;;
11344;SDS011;5727;42.600;23.028;2024-01-25T04:53:26;42.13;;;28.10;;
11344;SDS011;5727;42.600;23.028;2024-01-25T04:55:53;41.37;;;28.00;;
11344;SDS011;5727;42.600;23.028;2024-01-25T04:58:23;44.90;;;29.10;;
11344;SDS011;5727;42.600;23.028;2024-01-25T05:00:50;49.47;;;31.40;;
11344;SDS011;5727;42.600;23.028;2024-01-25T05:03:18;49.97;;;32.43;;
11344;SDS011;5727;42.600;23.028;2024-01-25T05:05:44;52.63;;;32.67;;
11344;SDS011;5727;42.600;23.028;2024-01-25T05:08:11;49.67;;;31.50;;
11344;SDS011;5727;42.600;23.028;2024-01-25T05:10:38;49.43;;;31.80;;
11344;SDS011;5727;42.600;23.028;2024-01-25T05:13:05;56.90;;;33.70;;
11344;SDS011;5727;42.600;23.028;2024-01-25T05:15:34;56.33;;;34.83;;
11344;SDS011;5727;42.600;23.028;2024-01-25T05:18:01;76.00;;;41.63;;
11344;SDS011;5727;42.600;23.028;2024-01-25T05:20:28;72.23;;;40.97;;
11344;SDS011;5727;42.600;23.028;2024-01-25T05:22:57;68.37;;;40.83;;
11344;SDS011;5727;42.600;23.028;2024-01-25T05:25:24;77.47;;;43.53;;
11344;SDS011;5727;42.600;23.028;2024-01-25T05:27:53;56.43;;;35.03;;
11344;SDS011;5727;42.600;23.028;2024-01-25T05:30:20;52.30;;;34.17;;
11344;SDS011;5727;42.600;23.028;2024-01-25T05:32:48;56.13;;;34.23;;
11344;SDS011;5727;42.600;23.028;2024-01-25T05:35:16;55.67;;;32.13;;
11344;SDS011;5727;42.600;23.028;2024-01-25T05:37:43;52.60;;;33.17;;
11344;SDS011;5727;42.600;23.028;2024-01-25T05:40:10;55.47;;;32.77;;
11344;SDS011;5727;42.600;23.028;2024-01-25T05:42:38;48.33;;;31.93;;
11344;SDS011;5727;42.600;23.028;2024-01-25T05:45:05;57.63;;;32.40;;
11344;SDS011;5727;42.600;23.028;2024-01-25T05:47:34;60.05;;;38.97;;
11344;SDS011;5727;42.600;23.028;2024-01-25T05:50:02;53.83;;;34.33;;
11344;SDS011;5727;42.600;23.028;2024-01-25T05:52:30;51.67;;;34.27;;
11344;SDS011;5727;42.600;23.028;2024-01-25T05:54:57;59.23;;;36.40;;
11344;SDS011;5727;42.600;23.028;2024-01-25T05:57:24;60.73;;;38.33;;
11344;SDS011;5727;42.600;23.028;2024-01-25T05:59:51;66.83;;;39.33;;
11344;SDS011;5727;42.600;23.028;2024-01-25T06:02:18;62.07;;;39.43;;
11344;SDS011;5727;42.600;23.028;2024-01-25T06:04:45;56.80;;;35.87;;
11344;SDS011;5727;42.600;23.028;2024-01-25T06:07:13;59.90;;;36.87;;
11344;SDS011;5727;42.600;23.028;2024-01-25T06:09:40;47.17;;;30.70;;
11344;SDS011;5727;42.600;23.028;2024-01-25T06:12:07;48.47;;;33.37;;
11344;SDS011;5727;42.600;23.028;2024-01-25T06:14:35;49.83;;;31.70;;
11344;SDS011;5727;42.600;23.028;2024-01-25T06:17:01;63.70;;;37.07;;
11344;SDS011;5727;42.600;23.028;2024-01-25T06:19:29;65.20;;;40.40;;
11344;SDS011;5727;42.600;23.028;2024-01-25T06:21:57;60.00;;;37.27;;
11344;SDS011;5727;42.600;23.028;2024-01-25T06:24:25;61.87;;;39.23;;
11344;SDS011;5727;42.600;23.028;2024-01-25T06:26:52;63.47;;;37.83;;
11344;SDS011;5727;42.600;23.028;2024-01-25T06:29:20;63.30;;;39.43;;
11344;SDS011;5727;42.600;23.028;2024-01-25T06:31:47;59.63;;;37.87;;
11344;SDS011;5727;42.600;23.028;2024-01-25T06:34:14;69.57;;;41.57;;
11344;SDS011;5727;42.600;23.028;2024-01-25T06:36:41;65.90;;;41.40;;
11344;SDS011;5727;42.600;23.028;2024-01-25T06:39:08;78.63;;;46.33;;
11344;SDS011;5727;42.600;23.028;2024-01-25T06:41:37;88.00;;;53.53;;
11344;SDS011;5727;42.600;23.028;2024-01-25T06:44:04;81.10;;;52.93;;
11344;SDS011;5727;42.600;23.028;2024-01-25T06:46:31;92.53;;;50.33;;
11344;SDS011;5727;42.600;23.028;2024-01-25T06:48:58;77.80;;;50.17;;
11344;SDS011;5727;42.600;23.028;2024-01-25T06:51:25;81.13;;;48.03;;
11344;SDS011;5727;42.600;23.028;2024-01-25T06:53:52;88.23;;;49.63;;
11344;SDS011;5727;42.600;23.028;2024-01-25T06:56:19;68.37;;;39.37;;
11344;SDS011;5727;42.600;23.028;2024-01-25T06:58:48;64.53;;;42.33;;
11344;SDS011;5727;42.600;23.028;2024-01-25T07:01:19;80.97;;;46.33;;
11344;SDS011;5727;42.600;23.028;2024-01-25T07:03:47;70.43;;;44.57;;
11344;SDS011;5727;42.600;23.028;2024-01-25T07:06:15;72.07;;;43.67;;
11344;SDS011;5727;42.600;23.028;2024-01-25T07:08:42;70.57;;;42.00;;
11344;SDS011;5727;42.600;23.028;2024-01-25T07:11:09;69.23;;;42.67;;
11344;SDS011;5727;42.600;23.028;2024-01-25T07:13:37;72.17;;;44.90;;
11344;SDS011;5727;42.600;23.028;2024-01-25T07:16:06;69.07;;;42.53;;
11344;SDS011;5727;42.600;23.028;2024-01-25T07:18:33;62.00;;;41.20;;
11344;SDS011;5727;42.600;23.028;2024-01-25T07:21:02;69.53;;;44.13;;
11344;SDS011;5727;42.600;23.028;2024-01-25T07:23:30;80.83;;;48.73;;
11344;SDS011;5727;42.600;23.028;2024-01-25T07:25:59;78.97;;;52.27;;
11344;SDS011;5727;42.600;23.028;2024-01-25T07:28:26;96.60;;;56.30;;
11344;SDS011;5727;42.600;23.028;2024-01-25T07:30:53;120.97;;;72.87;;
11344;SDS011;5727;42.600;23.028;2024-01-25T07:33:22;133.73;;;79.93;;
11344;SDS011;5727;42.600;23.028;2024-01-25T07:35:50;110.67;;;68.07;;
11344;SDS011;5727;42.600;23.028;2024-01-25T07:38:17;116.40;;;68.30;;
11344;SDS011;5727;42.600;23.028;2024-01-25T07:40:44;127.73;;;76.20;;
11344;SDS011;5727;42.600;23.028;2024-01-25T07:43:11;81.80;;;52.63;;
11344;SDS011;5727;42.600;23.028;2024-01-25T07:45:38;88.07;;;53.60;;
11344;SDS011;5727;42.600;23.028;2024-01-25T07:48:05;74.37;;;46.77;;
11344;SDS011;5727;42.600;23.028;2024-01-25T07:50:34;78.50;;;46.47;;
11344;SDS011;5727;42.600;23.028;2024-01-25T07:53:01;82.03;;;50.40;;
11344;SDS011;5727;42.600;23.028;2024-01-25T07:55:28;99.00;;;60.17;;
11344;SDS011;5727;42.600;23.028;2024-01-25T07:57:56;104.23;;;64.73;;
11344;SDS011;5727;42.600;23.028;2024-01-25T08:00:23;112.00;;;67.30;;
11344;SDS011;5727;42.600;23.028;2024-01-25T08:02:50;139.73;;;88.07;;
11344;SDS011;5727;42.600;23.028;2024-01-25T08:05:17;112.37;;;70.77;;
11344;SDS011;5727;42.600;23.028;2024-01-25T08:07:46;113.60;;;67.00;;
11344;SDS011;5727;42.600;23.028;2024-01-25T08:10:14;94.03;;;60.53;;
11344;SDS011;5727;42.600;23.028;2024-01-25T08:12:41;101.20;;;62.67;;
11344;SDS011;5727;42.600;23.028;2024-01-25T08:15:12;96.83;;;60.73;;
11344;SDS011;5727;42.600;23.028;2024-01-25T08:17:39;84.43;;;51.83;;
11344;SDS011;5727;42.600;23.028;2024-01-25T08:20:07;85.90;;;51.67;;
11344;SDS011;5727;42.600;23.028;2024-01-25T08:22:34;90.97;;;51.27;;
11344;SDS011;5727;42.600;23.028;2024-01-25T08:25:03;92.87;;;56.70;;
11344;SDS011;5727;42.600;23.028;2024-01-25T08:27:30;92.73;;;58.53;;
11344;SDS011;5727;42.600;23.028;2024-01-25T08:29:57;98.33;;;60.00;;
11344;SDS011;5727;42.600;23.028;2024-01-25T08:32:24;88.40;;;55.60;;
11344;SDS011;5727;42.600;23.028;2024-01-25T08:34:51;96.80;;;61.63;;
11344;SDS011;5727;42.600;23.028;2024-01-25T08:37:18;90.73;;;57.13;;
11344;SDS011;5727;42.600;23.028;2024-01-25T08:39:45;86.57;;;56.67;;
11344;SDS011;5727;42.600;23.028;2024-01-25T08:42:17;84.03;;;55.10;;
11344;SDS011;5727;42.600;23.028;2024-01-25T08:44:46;74.23;;;49.80;;
11344;SDS011;5727;42.600;23.028;2024-01-25T08:47:15;84.50;;;52.23;;
11344;SDS011;5727;42.600;23.028;2024-01-25T08:49:43;80.93;;;56.00;;
11344;SDS011;5727;42.600;23.028;2024-01-25T08:52:10;98.70;;;61.70;;
11344;SDS011;5727;42.600;23.028;2024-01-25T08:54:37;99.47;;;62.50;;
11344;SDS011;5727;42.600;23.028;2024-01-25T08:57:04;64.40;;;39.67;;
11344;SDS011;5727;42.600;23.028;2024-01-25T08:59:33;61.07;;;38.73;;
11344;SDS011;5727;42.600;23.028;2024-01-25T09:02:03;60.77;;;36.70;;
11344;SDS011;5727;42.600;23.028;2024-01-25T09:04:31;65.73;;;39.70;;
11344;SDS011;5727;42.600;23.028;2024-01-25T09:06:58;52.67;;;35.57;;
11344;SDS011;5727;42.600;23.028;2024-01-25T09:09:25;60.17;;;38.00;;
11344;SDS011;5727;42.600;23.028;2024-01-25T09:11:52;62.97;;;40.60;;
11344;SDS011;5727;42.600;23.028;2024-01-25T09:14:19;67.07;;;40.90;;
11344;SDS011;5727;42.600;23.028;2024-01-25T09:16:48;64.43;;;41.43;;
11344;SDS011;5727;42.600;23.028;2024-01-25T09:19:15;62.57;;;42.47;;
11344;SDS011;5727;42.600;23.028;2024-01-25T09:21:42;59.63;;;39.90;;
11344;SDS011;5727;42.600;23.028;2024-01-25T09:24:09;66.37;;;40.43;;
11344;SDS011;5727;42.600;23.028;2024-01-25T09:26:36;65.50;;;41.40;;
11344;SDS011;5727;42.600;23.028;2024-01-25T09:29:03;60.43;;;38.90;;
11344;SDS011;5727;42.600;23.028;2024-01-25T09:31:30;55.17;;;37.27;;
11344;SDS011;5727;42.600;23.028;2024-01-25T09:33:58;58.43;;;37.87;;
11344;SDS011;5727;42.600;23.028;2024-01-25T09:36:25;54.80;;;34.73;;
11344;SDS011;5727;42.600;23.028;2024-01-25T09:38:52;30.53;;;20.30;;
11344;SDS011;5727;42.600;23.028;2024-01-25T09:41:19;43.10;;;28.17;;
11344;SDS011;5727;42.600;23.028;2024-01-25T09:43:46;41.77;;;28.40;;
11344;SDS011;5727;42.600;23.028;2024-01-25T09:46:14;44.37;;;28.60;;
11344;SDS011;5727;42.600;23.028;2024-01-25T09:48:41;38.13;;;24.53;;
11344;SDS011;5727;42.600;23.028;2024-01-25T09:51:12;37.47;;;21.90;;
11344;SDS011;5727;42.600;23.028;2024-01-25T09:53:39;23.53;;;14.07;;
11344;SDS011;5727;42.600;23.028;2024-01-25T09:56:07;29.97;;;19.43;;
11344;SDS011;5727;42.600;23.028;2024-01-25T09:58:38;29.70;;;19.47;;
11344;SDS011;5727;42.600;23.028;2024-01-25T10:01:10;36.97;;;22.80;;
11344;SDS011;5727;42.600;23.028;2024-01-25T10:03:38;32.33;;;21.87;;
11344;SDS011;5727;42.600;23.028;2024-01-25T10:06:06;35.63;;;22.53;;
11344;SDS011;5727;42.600;23.028;2024-01-25T10:08:35;34.07;;;21.17;;
11344;SDS011;5727;42.600;23.028;2024-01-25T10:11:02;24.97;;;14.70;;
11344;SDS011;5727;42.600;23.028;2024-01-25T10:13:29;22.70;;;15.03;;
11344;SDS011;5727;42.600;23.028;2024-01-25T10:15:57;27.03;;;17.40;;
11344;SDS011;5727;42.600;23.028;2024-01-25T10:18:24;29.90;;;18.80;;
11344;SDS011;5727;42.600;23.028;2024-01-25T10:20:52;22.77;;;18.13;;
11344;SDS011;5727;42.600;23.028;2024-01-25T10:23:19;27.90;;;16.80;;
11344;SDS011;5727;42.600;23.028;2024-01-25T10:25:48;24.07;;;16.13;;
11344;SDS011;5727;42.600;23.028;2024-01-25T10:28:15;26.10;;;16.17;;
11344;SDS011;5727;42.600;23.028;2024-01-25T10:30:43;24.10;;;15.83;;
11344;SDS011;5727;42.600;23.028;2024-01-25T10:33:10;20.77;;;13.70;;
11344;SDS011;5727;42.600;23.028;2024-01-25T10:35:38;19.00;;;12.93;;
11344;SDS011;5727;42.600;23.028;2024-01-25T10:38:10;22.40;;;14.37;;
11344;SDS011;5727;42.600;23.028;2024-01-25T10:40:37;19.00;;;12.70;;
11344;SDS011;5727;42.600;23.028;2024-01-25T10:43:08;18.27;;;11.50;;
11344;SDS011;5727;42.600;23.028;2024-01-25T10:45:35;20.23;;;12.43;;
11344;SDS011;5727;42.600;23.028;2024-01-25T10:48:02;23.10;;;11.87;;
11344;SDS011;5727;42.600;23.028;2024-01-25T10:50:31;18.67;;;14.47;;
11344;SDS011;5727;42.600;23.028;2024-01-25T10:52:58;14.97;;;9.13;;
11344;SDS011;5727;42.600;23.028;2024-01-25T10:55:27;17.70;;;10.67;;
11344;SDS011;5727;42.600;23.028;2024-01-25T10:57:54;22.87;;;14.53;;
11344;SDS011;5727;42.600;23.028;2024-01-25T11:00:23;19.50;;;12.17;;
11344;SDS011;5727;42.600;23.028;2024-01-25T11:02:50;7.23;;;6.00;;
11344;SDS011;5727;42.600;23.028;2024-01-25T11:05:17;13.97;;;9.40;;
11344;SDS011;5727;42.600;23.028;2024-01-25T11:07:46;12.03;;;8.33;;
11344;SDS011;5727;42.600;23.028;2024-01-25T11:10:14;15.10;;;10.90;;
11344;SDS011;5727;42.600;23.028;2024-01-25T11:12:48;12.90;;;7.43;;
11344;SDS011;5727;42.600;23.028;2024-01-25T11:15:20;13.87;;;9.93;;
11344;SDS011;5727;42.600;23.028;2024-01-25T11:17:53;12.97;;;7.70;;
11344;SDS011;5727;42.600;23.028;2024-01-25T11:20:21;8.80;;;6.83;;
11344;SDS011;5727;42.600;23.028;2024-01-25T11:22:54;8.53;;;5.20;;
11344;SDS011;5727;42.600;23.028;2024-01-25T11:25:23;8.53;;;5.10;;
11344;SDS011;5727;42.600;23.028;2024-01-25T11:27:53;7.47;;;4.17;;
11344;SDS011;5727;42.600;23.028;2024-01-25T11:30:20;8.67;;;5.33;;
11344;SDS011;5727;42.600;23.028;2024-01-25T11:32:47;6.63;;;4.50;;
11344;SDS011;5727;42.600;23.028;2024-01-25T11:35:16;8.83;;;4.93;;
11344;SDS011;5727;42.600;23.028;2024-01-25T11:37:43;4.27;;;3.30;;
11344;SDS011;5727;42.600;23.028;2024-01-25T11:40:12;5.57;;;2.40;;
11344;SDS011;5727;42.600;23.028;2024-01-25T11:42:39;3.03;;;2.73;;
11344;SDS011;5727;42.600;23.028;2024-01-25T11:45:08;3.50;;;2.80;;
11344;SDS011;5727;42.600;23.028;2024-01-25T11:47:37;7.23;;;3.10;;
11344;SDS011;5727;42.600;23.028;2024-01-25T11:50:05;10.53;;;3.30;;
11344;SDS011;5727;42.600;23.028;2024-01-25T11:52:35;6.33;;;3.37;;
11344;SDS011;5727;42.600;23.028;2024-01-25T11:55:02;6.07;;;2.90;;
11344;SDS011;5727;42.600;23.028;2024-01-25T11:57:30;5.50;;;2.90;;
11344;SDS011;5727;42.600;23.028;2024-01-25T11:59:58;5.97;;;3.60;;
11344;SDS011;5727;42.600;23.028;2024-01-25T12:02:26;4.37;;;3.17;;
11344;SDS011;5727;42.600;23.028;2024-01-25T12:04:55;5.40;;;3.50;;
11344;SDS011;5727;42.600;23.028;2024-01-25T12:07:23;6.13;;;3.03;;
11344;SDS011;5727;42.600;23.028;2024-01-25T12:10:01;6.50;;;3.47;;
11344;SDS011;5727;42.600;23.028;2024-01-25T12:12:29;4.60;;;3.57;;
11344;SDS011;5727;42.600;23.028;2024-01-25T12:14:59;4.10;;;3.27;;
11344;SDS011;5727;42.600;23.028;2024-01-25T12:17:28;8.43;;;4.10;;
11344;SDS011;5727;42.600;23.028;2024-01-25T12:19:55;7.20;;;3.50;;
11344;SDS011;5727;42.600;23.028;2024-01-25T12:22:23;5.70;;;4.00;;
11344;SDS011;5727;42.600;23.028;2024-01-25T12:24:52;8.23;;;4.30;;
11344;SDS011;5727;42.600;23.028;2024-01-25T12:27:21;5.97;;;3.87;;
11344;SDS011;5727;42.600;23.028;2024-01-25T12:29:50;5.63;;;4.03;;
11344;SDS011;5727;42.600;23.028;2024-01-25T12:32:18;3.57;;;3.23;;
11344;SDS011;5727;42.600;23.028;2024-01-25T12:34:52;4.77;;;3.27;;
11344;SDS011;5727;42.600;23.028;2024-01-25T12:37:20;7.10;;;3.20;;
11344;SDS011;5727;42.600;23.028;2024-01-25T12:39:47;5.17;;;3.27;;
11344;SDS011;5727;42.600;23.028;2024-01-25T12:42:14;3.43;;;3.07;;
11344;SDS011;5727;42.600;23.028;2024-01-25T12:44:43;7.20;;;3.43;;
11344;SDS011;5727;42.600;23.028;2024-01-25T12:47:10;3.63;;;3.20;;
11344;SDS011;5727;42.600;23.028;2024-01-25T12:49:39;5.57;;;3.53;;
11344;SDS011;5727;42.600;23.028;2024-01-25T12:52:07;6.13;;;3.60;;
11344;SDS011;5727;42.600;23.028;2024-01-25T12:54:34;6.27;;;3.33;;
11344;SDS011;5727;42.600;23.028;2024-01-25T12:57:02;5.30;;;3.13;;
11344;SDS011;5727;42.600;23.028;2024-01-25T12:59:29;4.13;;;3.30;;
11344;SDS011;5727;42.600;23.028;2024-01-25T13:01:58;8.77;;;3.90;;
11344;SDS011;5727;42.600;23.028;2024-01-25T13:04:25;6.70;;;3.20;;
11344;SDS011;5727;42.600;23.028;2024-01-25T13:06:52;7.27;;;3.57;;
11344;SDS011;5727;42.600;23.028;2024-01-25T13:09:21;6.50;;;3.70;;
11344;SDS011;5727;42.600;23.028;2024-01-25T13:11:48;8.20;;;3.87;;
11344;SDS011;5727;42.600;23.028;2024-01-25T13:14:17;4.10;;;3.20;;
11344;SDS011;5727;42.600;23.028;2024-01-25T13:16:44;9.60;;;4.17;;
11344;SDS011;5727;42.600;23.028;2024-01-25T13:19:13;4.83;;;3.53;;
11344;SDS011;5727;42.600;23.028;2024-01-25T13:21:40;6.33;;;3.63;;
11344;SDS011;5727;42.600;23.028;2024-01-25T13:24:07;4.13;;;3.00;;
11344;SDS011;5727;42.600;23.028;2024-01-25T13:26:35;6.37;;;3.83;;
11344;SDS011;5727;42.600;23.028;2024-01-25T13:29:03;8.93;;;3.40;;
11344;SDS011;5727;42.600;23.028;2024-01-25T13:31:37;4.90;;;3.70;;
11344;SDS011;5727;42.600;23.028;2024-01-25T13:34:05;7.67;;;3.83;;
11344;SDS011;5727;42.600;23.028;2024-01-25T13:36:33;6.23;;;3.80;;
11344;SDS011;5727;42.600;23.028;2024-01-25T13:39:00;8.53;;;4.77;;
11344;SDS011;5727;42.600;23.028;2024-01-25T13:41:28;12.87;;;5.37;;
11344;SDS011;5727;42.600;23.028;2024-01-25T13:43:56;7.37;;;3.40;;
11344;SDS011;5727;42.600;23.028;2024-01-25T13:46:23;8.47;;;5.00;;
11344;SDS011;5727;42.600;23.028;2024-01-25T13:48:49;6.90;;;3.70;;
11344;SDS011;5727;42.600;23.028;2024-01-25T13:51:17;9.17;;;5.20;;
11344;SDS011;5727;42.600;23.028;2024-01-25T13:53:45;10.70;;;4.50;;
11344;SDS011;5727;42.600;23.028;2024-01-25T13:56:14;8.17;;;4.30;;
11344;SDS011;5727;42.600;23.028;2024-01-25T13:58:41;5.60;;;4.03;;
11344;SDS011;5727;42.600;23.028;2024-01-25T14:01:08;6.17;;;4.13;;
11344;SDS011;5727;42.600;23.028;2024-01-25T14:03:36;8.30;;;4.67;;
11344;SDS011;5727;42.600;23.028;2024-01-25T14:06:03;9.83;;;4.97;;
11344;SDS011;5727;42.600;23.028;2024-01-25T14:08:30;7.57;;;4.20;;
11344;SDS011;5727;42.600;23.028;2024-01-25T14:10:59;4.87;;;3.03;;
11344;SDS011;5727;42.600;23.028;2024-01-25T14:13:26;4.97;;;4.00;;
11344;SDS011;5727;42.600;23.028;2024-01-25T14:15:53;5.37;;;2.80;;
11344;SDS011;5727;42.600;23.028;2024-01-25T14:18:20;7.37;;;3.27;;
11344;SDS011;5727;42.600;23.028;2024-01-25T14:20:47;6.93;;;3.63;;
11344;SDS011;5727;42.600;23.028;2024-01-25T14:23:14;6.83;;;3.30;;
11344;SDS011;5727;42.600;23.028;2024-01-25T14:25:40;5.60;;;3.47;;
11344;SDS011;5727;42.600;23.028;2024-01-25T14:28:09;4.67;;;3.27;;